sensor_id;sensor_type;location;lat;lon;timestamp;temperature;humidity
48043;DHT22;33988;47.992;8.820;2023-01-13T00:01:27;12.70;57.20
48043;DHT22;33988;47.992;8.820;2023-01-13T00:03:58;12.70;57.20
48043;DHT22;33988;47.992;8.820;2023-01-13T00:06:26;12.70;57.20
48043;DHT22;33988;47.992;8.820;2023-01-13T00:08:54;12.70;57.20
48043;DHT22;33988;47.992;8.820;2023-01-13T00:11:21;12.70;57.30
48043;DHT22;33988;47.992;8.820;2023-01-13T00:13:49;12.80;57.30
48043;DHT22;33988;47.992;8.820;2023-01-13T00:16:22;12.80;57.20
48043;DHT22;33988;47.992;8.820;2023-01-13T00:18:49;12.80;57.20
48043;DHT22;33988;47.992;8.820;2023-01-13T00:21:21;12.80;57.10
48043;DHT22;33988;47.992;8.820;2023-01-13T00:23:51;12.80;57.10
48043;DHT22;33988;47.992;8.820;2023-01-13T00:26:21;12.80;57.10
48043;DHT22;33988;47.992;8.820;2023-01-13T00:28:57;12.60;57.20
48043;DHT22;33988;47.992;8.820;2023-01-13T00:31:27;12.70;57.30
48043;DHT22;33988;47.992;8.820;2023-01-13T00:33:56;12.80;57.20
48043;DHT22;33988;47.992;8.820;2023-01-13T00:36:31;12.80;57.20
48043;DHT22;33988;47.992;8.820;2023-01-13T00:39:00;12.80;57.20
48043;DHT22;33988;47.992;8.820;2023-01-13T00:41:28;12.80;57.20
48043;DHT22;33988;47.992;8.820;2023-01-13T00:44:18;12.80;57.20
48043;DHT22;33988;47.992;8.820;2023-01-13T00:46:49;12.70;57.20
48043;DHT22;33988;47.992;8.820;2023-01-13T00:49:16;12.50;57.30
48043;DHT22;33988;47.992;8.820;2023-01-13T00:51:45;12.70;57.40
48043;DHT22;33988;47.992;8.820;2023-01-13T00:54:14;12.70;58.00
48043;DHT22;33988;47.992;8.820;2023-01-13T00:56:41;12.70;57.40
48043;DHT22;33988;47.992;8.820;2023-01-13T00:59:12;12.70;57.40
48043;DHT22;33988;47.992;8.820;2023-01-13T01:01:40;12.70;57.40
48043;DHT22;33988;47.992;8.820;2023-01-13T01:04:07;12.80;57.50
48043;DHT22;33988;47.992;8.820;2023-01-13T01:06:34;12.80;57.40
48043;DHT22;33988;47.992;8.820;2023-01-13T01:09:02;12.80;57.40
48043;DHT22;33988;47.992;8.820;2023-01-13T01:11:32;12.80;57.30
48043;DHT22;33988;47.992;8.820;2023-01-13T01:14:03;12.80;57.30
48043;DHT22;33988;47.992;8.820;2023-01-13T01:16:31;12.80;57.20
48043;DHT22;33988;47.992;8.820;2023-01-13T01:19:00;12.90;57.30
48043;DHT22;33988;47.992;8.820;2023-01-13T01:21:28;12.80;57.20
48043;DHT22;33988;47.992;8.820;2023-01-13T01:23:58;12.90;57.20
48043;DHT22;33988;47.992;8.820;2023-01-13T01:26:33;12.80;57.20
48043;DHT22;33988;47.992;8.820;2023-01-13T01:29:00;12.90;57.20
48043;DHT22;33988;47.992;8.820;2023-01-13T01:31:33;12.90;57.20
48043;DHT22;33988;47.992;8.820;2023-01-13T01:34:00;12.80;56.90
48043;DHT22;33988;47.992;8.820;2023-01-13T01:36:28;12.80;57.00
48043;DHT22;33988;47.992;8.820;2023-01-13T01:38:58;12.80;57.00
48043;DHT22;33988;47.992;8.820;2023-01-13T01:41:29;12.80;56.90
48043;DHT22;33988;47.992;8.820;2023-01-13T01:44:00;12.80;56.80
48043;DHT22;33988;47.992;8.820;2023-01-13T01:49:24;12.60;56.70
48043;DHT22;33988;47.992;8.820;2023-01-13T01:55:03;12.50;56.60
48043;DHT22;33988;47.992;8.820;2023-01-13T01:57:50;12.40;56.60
48043;DHT22;33988;47.992;8.820;2023-01-13T02:00:21;12.30;56.80
48043;DHT22;33988;47.992;8.820;2023-01-13T02:02:56;12.30;56.90
48043;DHT22;33988;47.992;8.820;2023-01-13T02:05:23;12.30;57.00
48043;DHT22;33988;47.992;8.820;2023-01-13T02:07:53;12.20;57.00
48043;DHT22;33988;47.992;8.820;2023-01-13T02:10:25;12.30;57.10
48043;DHT22;33988;47.992;8.820;2023-01-13T02:12:57;12.20;57.10
48043;DHT22;33988;47.992;8.820;2023-01-13T02:15:45;12.20;57.20
48043;DHT22;33988;47.992;8.820;2023-01-13T02:18:57;12.30;57.20
48043;DHT22;33988;47.992;8.820;2023-01-13T02:24:46;12.20;57.10
48043;DHT22;33988;47.992;8.820;2023-01-13T02:30:57;12.10;57.20
48043;DHT22;33988;47.992;8.820;2023-01-13T02:35:07;12.10;57.40
48043;DHT22;33988;47.992;8.820;2023-01-13T02:42:13;12.20;57.50
48043;DHT22;33988;47.992;8.820;2023-01-13T02:45:16;12.20;57.60
48043;DHT22;33988;47.992;8.820;2023-01-13T02:47:51;12.20;57.60
48043;DHT22;33988;47.992;8.820;2023-01-13T02:50:39;12.30;57.50
48043;DHT22;33988;47.992;8.820;2023-01-13T02:53:19;12.20;57.30
48043;DHT22;33988;47.992;8.820;2023-01-13T02:56:02;12.20;58.00
48043;DHT22;33988;47.992;8.820;2023-01-13T02:58:35;12.20;57.40
48043;DHT22;33988;47.992;8.820;2023-01-13T03:01:05;12.20;57.30
48043;DHT22;33988;47.992;8.820;2023-01-13T03:03:35;12.30;57.30
48043;DHT22;33988;47.992;8.820;2023-01-13T03:06:30;12.20;57.30
48043;DHT22;33988;47.992;8.820;2023-01-13T03:11:44;12.20;57.30
48043;DHT22;33988;47.992;8.820;2023-01-13T03:15:03;12.20;57.30
48043;DHT22;33988;47.992;8.820;2023-01-13T03:20:36;12.20;57.30
48043;DHT22;33988;47.992;8.820;2023-01-13T03:23:36;12.20;57.40
48043;DHT22;33988;47.992;8.820;2023-01-13T03:29:05;12.20;57.40
48043;DHT22;33988;47.992;8.820;2023-01-13T03:31:49;12.20;57.40
48043;DHT22;33988;47.992;8.820;2023-01-13T03:34:26;12.20;57.50
48043;DHT22;33988;47.992;8.820;2023-01-13T03:36:59;12.10;57.40
48043;DHT22;33988;47.992;8.820;2023-01-13T03:39:32;12.20;57.50
48043;DHT22;33988;47.992;8.820;2023-01-13T03:42:07;12.00;57.60
48043;DHT22;33988;47.992;8.820;2023-01-13T03:44:51;12.10;57.60
48043;DHT22;33988;47.992;8.820;2023-01-13T03:53:05;12.00;57.60
48043;DHT22;33988;47.992;8.820;2023-01-13T03:55:42;12.00;57.70
48043;DHT22;33988;47.992;8.820;2023-01-13T03:58:16;12.00;57.80
48043;DHT22;33988;47.992;8.820;2023-01-13T04:04:11;12.00;58.10
48043;DHT22;33988;47.992;8.820;2023-01-13T04:12:28;11.90;58.40
48043;DHT22;33988;47.992;8.820;2023-01-13T04:15:20;11.90;58.50
48043;DHT22;33988;47.992;8.820;2023-01-13T04:17:50;11.90;58.60
48043;DHT22;33988;47.992;8.820;2023-01-13T04:20:19;11.90;58.60
48043;DHT22;33988;47.992;8.820;2023-01-13T04:22:49;11.90;58.70
48043;DHT22;33988;47.992;8.820;2023-01-13T04:25:16;11.90;58.80
48043;DHT22;33988;47.992;8.820;2023-01-13T04:27:45;11.90;58.80
48043;DHT22;33988;47.992;8.820;2023-01-13T04:30:12;11.90;58.90
48043;DHT22;33988;47.992;8.820;2023-01-13T04:32:39;11.90;58.90
48043;DHT22;33988;47.992;8.820;2023-01-13T04:35:07;11.90;59.10
48043;DHT22;33988;47.992;8.820;2023-01-13T04:37:34;11.90;59.10
48043;DHT22;33988;47.992;8.820;2023-01-13T04:40:01;11.90;59.20
48043;DHT22;33988;47.992;8.820;2023-01-13T04:42:31;11.90;59.30
48043;DHT22;33988;47.992;8.820;2023-01-13T04:45:00;11.90;59.40
48043;DHT22;33988;47.992;8.820;2023-01-13T04:47:27;11.90;59.50
48043;DHT22;33988;47.992;8.820;2023-01-13T04:49:54;11.90;59.50
48043;DHT22;33988;47.992;8.820;2023-01-13T04:52:21;11.90;59.70
48043;DHT22;33988;47.992;8.820;2023-01-13T04:54:48;11.90;59.80
48043;DHT22;33988;47.992;8.820;2023-01-13T04:57:15;11.90;60.10
48043;DHT22;33988;47.992;8.820;2023-01-13T04:59:41;11.80;59.90
48043;DHT22;33988;47.992;8.820;2023-01-13T05:02:09;11.80;60.10
48043;DHT22;33988;47.992;8.820;2023-01-13T05:04:40;11.80;60.90
48043;DHT22;33988;47.992;8.820;2023-01-13T05:07:12;11.80;60.20
48043;DHT22;33988;47.992;8.820;2023-01-13T05:09:41;11.80;60.30
48043;DHT22;33988;47.992;8.820;2023-01-13T05:12:11;11.80;60.30
48043;DHT22;33988;47.992;8.820;2023-01-13T05:14:58;11.80;60.60
48043;DHT22;33988;47.992;8.820;2023-01-13T05:17:46;11.80;60.60
48043;DHT22;33988;47.992;8.820;2023-01-13T05:20:13;11.70;60.70
48043;DHT22;33988;47.992;8.820;2023-01-13T05:22:42;11.70;60.70
48043;DHT22;33988;47.992;8.820;2023-01-13T05:25:28;11.70;60.90
48043;DHT22;33988;47.992;8.820;2023-01-13T05:28:01;11.70;61.00
48043;DHT22;33988;47.992;8.820;2023-01-13T05:30:31;11.70;61.00
48043;DHT22;33988;47.992;8.820;2023-01-13T05:33:03;11.70;61.10
48043;DHT22;33988;47.992;8.820;2023-01-13T05:35:37;11.70;61.10
48043;DHT22;33988;47.992;8.820;2023-01-13T05:38:04;11.70;61.30
48043;DHT22;33988;47.992;8.820;2023-01-13T05:40:34;11.70;61.20
48043;DHT22;33988;47.992;8.820;2023-01-13T05:43:20;11.70;61.20
48043;DHT22;33988;47.992;8.820;2023-01-13T05:48:41;11.60;61.20
48043;DHT22;33988;47.992;8.820;2023-01-13T05:51:11;11.60;61.30
48043;DHT22;33988;47.992;8.820;2023-01-13T05:53:38;11.60;61.30
48043;DHT22;33988;47.992;8.820;2023-01-13T05:56:11;11.60;61.30
48043;DHT22;33988;47.992;8.820;2023-01-13T05:58:38;11.60;61.30
48043;DHT22;33988;47.992;8.820;2023-01-13T06:01:08;11.60;61.40
48043;DHT22;33988;47.992;8.820;2023-01-13T06:03:38;11.60;61.40
48043;DHT22;33988;47.992;8.820;2023-01-13T06:06:07;11.60;62.30
48043;DHT22;33988;47.992;8.820;2023-01-13T06:08:34;11.60;61.60
48043;DHT22;33988;47.992;8.820;2023-01-13T06:11:04;11.60;61.60
48043;DHT22;33988;47.992;8.820;2023-01-13T06:13:34;11.60;61.60
48043;DHT22;33988;47.992;8.820;2023-01-13T06:16:03;11.60;61.70
48043;DHT22;33988;47.992;8.820;2023-01-13T06:18:30;11.50;62.10
48043;DHT22;33988;47.992;8.820;2023-01-13T06:20:59;11.60;61.80
48043;DHT22;33988;47.992;8.820;2023-01-13T06:23:27;11.60;61.80
48043;DHT22;33988;47.992;8.820;2023-01-13T06:28:59;11.60;61.90
48043;DHT22;33988;47.992;8.820;2023-01-13T06:31:26;11.60;61.80
48043;DHT22;33988;47.992;8.820;2023-01-13T06:34:10;11.60;61.80
48043;DHT22;33988;47.992;8.820;2023-01-13T06:36:45;11.60;62.00
48043;DHT22;33988;47.992;8.820;2023-01-13T06:39:23;11.60;62.00
48043;DHT22;33988;47.992;8.820;2023-01-13T06:42:00;11.60;62.00
48043;DHT22;33988;47.992;8.820;2023-01-13T06:44:49;11.60;62.00
48043;DHT22;33988;47.992;8.820;2023-01-13T06:47:19;11.60;62.10
48043;DHT22;33988;47.992;8.820;2023-01-13T06:49:48;11.70;62.10
48043;DHT22;33988;47.992;8.820;2023-01-13T06:52:14;11.70;62.20
48043;DHT22;33988;47.992;8.820;2023-01-13T06:54:49;11.60;62.10
48043;DHT22;33988;47.992;8.820;2023-01-13T06:57:22;11.70;62.20
48043;DHT22;33988;47.992;8.820;2023-01-13T06:59:51;11.70;62.20
48043;DHT22;33988;47.992;8.820;2023-01-13T07:02:21;11.70;62.30
48043;DHT22;33988;47.992;8.820;2023-01-13T07:04:51;11.60;62.20
48043;DHT22;33988;47.992;8.820;2023-01-13T07:07:20;11.70;62.40
48043;DHT22;33988;47.992;8.820;2023-01-13T07:09:47;11.70;62.30
48043;DHT22;33988;47.992;8.820;2023-01-13T07:12:18;11.70;62.40
48043;DHT22;33988;47.992;8.820;2023-01-13T07:14:50;11.60;62.30
48043;DHT22;33988;47.992;8.820;2023-01-13T07:17:35;11.60;62.40
48043;DHT22;33988;47.992;8.820;2023-01-13T07:20:02;11.60;62.50
48043;DHT22;33988;47.992;8.820;2023-01-13T07:22:32;11.60;62.50
48043;DHT22;33988;47.992;8.820;2023-01-13T07:25:02;11.60;62.60
48043;DHT22;33988;47.992;8.820;2023-01-13T07:27:29;11.60;62.60
48043;DHT22;33988;47.992;8.820;2023-01-13T07:29:56;11.60;62.60
48043;DHT22;33988;47.992;8.820;2023-01-13T07:32:25;11.60;62.70
48043;DHT22;33988;47.992;8.820;2023-01-13T07:34:52;11.60;62.70
48043;DHT22;33988;47.992;8.820;2023-01-13T07:37:35;11.60;62.70
48043;DHT22;33988;47.992;8.820;2023-01-13T07:40:04;11.60;62.80
48043;DHT22;33988;47.992;8.820;2023-01-13T07:42:31;11.60;62.80
48043;DHT22;33988;47.992;8.820;2023-01-13T07:45:16;11.60;62.80
48043;DHT22;33988;47.992;8.820;2023-01-13T07:47:50;11.60;62.80
48043;DHT22;33988;47.992;8.820;2023-01-13T07:50:18;11.60;63.00
48043;DHT22;33988;47.992;8.820;2023-01-13T07:52:49;11.60;63.00
48043;DHT22;33988;47.992;8.820;2023-01-13T07:55:16;11.60;63.00
48043;DHT22;33988;47.992;8.820;2023-01-13T07:57:43;11.60;63.00
48043;DHT22;33988;47.992;8.820;2023-01-13T08:00:10;11.60;63.00
48043;DHT22;33988;47.992;8.820;2023-01-13T08:02:38;11.60;63.10
48043;DHT22;33988;47.992;8.820;2023-01-13T08:05:08;11.60;63.10
48043;DHT22;33988;47.992;8.820;2023-01-13T08:07:40;11.60;63.10
48043;DHT22;33988;47.992;8.820;2023-01-13T08:10:09;11.60;63.10
48043;DHT22;33988;47.992;8.820;2023-01-13T08:12:36;11.60;63.10
48043;DHT22;33988;47.992;8.820;2023-01-13T08:15:24;11.60;63.10
48043;DHT22;33988;47.992;8.820;2023-01-13T08:17:54;11.60;63.10
48043;DHT22;33988;47.992;8.820;2023-01-13T08:20:21;11.60;63.10
48043;DHT22;33988;47.992;8.820;2023-01-13T08:22:55;11.70;63.20
48043;DHT22;33988;47.992;8.820;2023-01-13T08:25:27;11.70;63.30
48043;DHT22;33988;47.992;8.820;2023-01-13T08:27:57;11.70;63.20
48043;DHT22;33988;47.992;8.820;2023-01-13T08:30:29;11.70;63.20
48043;DHT22;33988;47.992;8.820;2023-01-13T08:33:01;11.70;63.20
48043;DHT22;33988;47.992;8.820;2023-01-13T08:35:34;11.70;63.20
48043;DHT22;33988;47.992;8.820;2023-01-13T08:38:03;11.80;63.20
48043;DHT22;33988;47.992;8.820;2023-01-13T08:40:33;11.80;63.20
48043;DHT22;33988;47.992;8.820;2023-01-13T08:43:03;11.80;63.20
48043;DHT22;33988;47.992;8.820;2023-01-13T08:45:30;11.90;63.20
48043;DHT22;33988;47.992;8.820;2023-01-13T08:48:02;11.90;63.10
48043;DHT22;33988;47.992;8.820;2023-01-13T08:50:29;11.70;63.30
48043;DHT22;33988;47.992;8.820;2023-01-13T08:52:59;11.90;63.20
48043;DHT22;33988;47.992;8.820;2023-01-13T08:55:26;11.90;63.10
48043;DHT22;33988;47.992;8.820;2023-01-13T08:57:53;12.00;63.20
48043;DHT22;33988;47.992;8.820;2023-01-13T09:00:34;12.00;63.20
48043;DHT22;33988;47.992;8.820;2023-01-13T09:03:01;11.90;63.20
48043;DHT22;33988;47.992;8.820;2023-01-13T09:05:28;12.00;63.30
48043;DHT22;33988;47.992;8.820;2023-01-13T09:07:57;12.00;63.40
48043;DHT22;33988;47.992;8.820;2023-01-13T09:10:24;12.00;63.40
48043;DHT22;33988;47.992;8.820;2023-01-13T09:12:51;12.00;63.50
48043;DHT22;33988;47.992;8.820;2023-01-13T09:15:37;12.00;63.60
48043;DHT22;33988;47.992;8.820;2023-01-13T09:18:07;12.00;63.60
48043;DHT22;33988;47.992;8.820;2023-01-13T09:20:36;12.00;63.70
48043;DHT22;33988;47.992;8.820;2023-01-13T09:23:04;12.00;63.80
48043;DHT22;33988;47.992;8.820;2023-01-13T09:25:38;12.10;64.00
48043;DHT22;33988;47.992;8.820;2023-01-13T09:28:05;12.00;63.90
48043;DHT22;33988;47.992;8.820;2023-01-13T09:30:35;12.10;64.00
48043;DHT22;33988;47.992;8.820;2023-01-13T09:33:02;12.10;64.10
48043;DHT22;33988;47.992;8.820;2023-01-13T09:35:48;12.10;64.10
48043;DHT22;33988;47.992;8.820;2023-01-13T09:38:19;12.10;64.10
48043;DHT22;33988;47.992;8.820;2023-01-13T09:40:51;12.10;64.10
48043;DHT22;33988;47.992;8.820;2023-01-13T09:43:33;12.10;64.90
48043;DHT22;33988;47.992;8.820;2023-01-13T09:46:25;12.10;64.20
48043;DHT22;33988;47.992;8.820;2023-01-13T09:49:22;12.10;64.10
48043;DHT22;33988;47.992;8.820;2023-01-13T09:52:15;12.10;64.20
48043;DHT22;33988;47.992;8.820;2023-01-13T09:54:57;12.20;64.50
48043;DHT22;33988;47.992;8.820;2023-01-13T09:57:29;12.20;64.50
48043;DHT22;33988;47.992;8.820;2023-01-13T10:00:08;12.20;64.40
48043;DHT22;33988;47.992;8.820;2023-01-13T10:03:09;12.20;64.50
48043;DHT22;33988;47.992;8.820;2023-01-13T10:08:46;12.40;65.10
48043;DHT22;33988;47.992;8.820;2023-01-13T10:11:18;12.40;64.70
48043;DHT22;33988;47.992;8.820;2023-01-13T10:14:41;12.50;64.60
48043;DHT22;33988;47.992;8.820;2023-01-13T10:28:09;12.70;64.50
48043;DHT22;33988;47.992;8.820;2023-01-13T10:30:42;12.70;64.40
48043;DHT22;33988;47.992;8.820;2023-01-13T10:33:35;12.80;64.40
48043;DHT22;33988;47.992;8.820;2023-01-13T10:38:44;12.80;64.40
48043;DHT22;33988;47.992;8.820;2023-01-13T10:41:17;12.90;64.40
48043;DHT22;33988;47.992;8.820;2023-01-13T10:43:59;12.90;64.10
48043;DHT22;33988;47.992;8.820;2023-01-13T10:46:31;12.90;63.90
48043;DHT22;33988;47.992;8.820;2023-01-13T10:49:34;13.00;64.00
48043;DHT22;33988;47.992;8.820;2023-01-13T10:52:06;12.90;64.00
48043;DHT22;33988;47.992;8.820;2023-01-13T10:54:54;12.90;63.90
48043;DHT22;33988;47.992;8.820;2023-01-13T10:57:28;12.90;63.70
48043;DHT22;33988;47.992;8.820;2023-01-13T11:00:03;12.90;63.70
48043;DHT22;33988;47.992;8.820;2023-01-13T11:02:33;12.90;63.90
48043;DHT22;33988;47.992;8.820;2023-01-13T11:05:25;13.00;63.80
48043;DHT22;33988;47.992;8.820;2023-01-13T11:07:56;12.90;64.00
48043;DHT22;33988;47.992;8.820;2023-01-13T11:10:26;13.00;64.00
48043;DHT22;33988;47.992;8.820;2023-01-13T11:18:15;13.10;63.90
48043;DHT22;33988;47.992;8.820;2023-01-13T11:20:47;13.10;63.80
48043;DHT22;33988;47.992;8.820;2023-01-13T11:23:44;13.10;63.60
48043;DHT22;33988;47.992;8.820;2023-01-13T11:26:25;13.10;63.30
48043;DHT22;33988;47.992;8.820;2023-01-13T11:29:17;13.10;63.30
48043;DHT22;33988;47.992;8.820;2023-01-13T11:32:05;13.10;63.10
48043;DHT22;33988;47.992;8.820;2023-01-13T11:34:39;13.10;63.00
48043;DHT22;33988;47.992;8.820;2023-01-13T11:37:13;13.10;63.00
48043;DHT22;33988;47.992;8.820;2023-01-13T11:42:40;13.30;62.70
48043;DHT22;33988;47.992;8.820;2023-01-13T11:47:52;13.30;61.80
48043;DHT22;33988;47.992;8.820;2023-01-13T12:01:55;13.40;60.70
48043;DHT22;33988;47.992;8.820;2023-01-13T12:07:42;13.40;59.70
48043;DHT22;33988;47.992;8.820;2023-01-13T12:10:22;13.40;59.90
48043;DHT22;33988;47.992;8.820;2023-01-13T12:21:27;13.30;59.10
48043;DHT22;33988;47.992;8.820;2023-01-13T12:24:12;13.30;59.20
48043;DHT22;33988;47.992;8.820;2023-01-13T12:26:53;13.30;59.00
48043;DHT22;33988;47.992;8.820;2023-01-13T12:29:46;13.40;59.00
48043;DHT22;33988;47.992;8.820;2023-01-13T12:32:17;13.40;58.50
48043;DHT22;33988;47.992;8.820;2023-01-13T12:38:07;13.50;58.50
48043;DHT22;33988;47.992;8.820;2023-01-13T12:43:52;13.70;58.40
48043;DHT22;33988;47.992;8.820;2023-01-13T12:46:51;13.80;58.40
48043;DHT22;33988;47.992;8.820;2023-01-13T12:57:23;13.90;56.90
48043;DHT22;33988;47.992;8.820;2023-01-13T13:02:35;13.80;57.10
48043;DHT22;33988;47.992;8.820;2023-01-13T13:07:59;13.80;56.70
48043;DHT22;33988;47.992;8.820;2023-01-13T13:10:41;13.80;57.00
48043;DHT22;33988;47.992;8.820;2023-01-13T13:13:40;13.80;56.80
48043;DHT22;33988;47.992;8.820;2023-01-13T13:16:50;13.70;56.40
48043;DHT22;33988;47.992;8.820;2023-01-13T13:19:39;13.60;56.50
48043;DHT22;33988;47.992;8.820;2023-01-13T13:27:44;13.70;56.60
48043;DHT22;33988;47.992;8.820;2023-01-13T13:39:23;13.50;55.70
48043;DHT22;33988;47.992;8.820;2023-01-13T13:45:17;13.50;56.30
48043;DHT22;33988;47.992;8.820;2023-01-13T13:48:28;13.40;55.80
48043;DHT22;33988;47.992;8.820;2023-01-13T13:51:06;13.40;55.80
48043;DHT22;33988;47.992;8.820;2023-01-13T13:53:51;13.40;56.00
48043;DHT22;33988;47.992;8.820;2023-01-13T13:56:25;13.50;55.90
48043;DHT22;33988;47.992;8.820;2023-01-13T13:58:55;13.60;55.50
48043;DHT22;33988;47.992;8.820;2023-01-13T14:01:35;13.60;55.50
48043;DHT22;33988;47.992;8.820;2023-01-13T14:06:53;13.60;54.80
48043;DHT22;33988;47.992;8.820;2023-01-13T14:09:22;13.50;54.70
48043;DHT22;33988;47.992;8.820;2023-01-13T14:12:00;13.50;54.80
48043;DHT22;33988;47.992;8.820;2023-01-13T14:14:32;13.50;54.60
48043;DHT22;33988;47.992;8.820;2023-01-13T14:16:59;13.50;54.80
48043;DHT22;33988;47.992;8.820;2023-01-13T14:19:34;13.50;54.70
48043;DHT22;33988;47.992;8.820;2023-01-13T14:22:03;13.50;54.70
48043;DHT22;33988;47.992;8.820;2023-01-13T14:24:31;13.50;54.60
48043;DHT22;33988;47.992;8.820;2023-01-13T14:27:15;13.40;54.60
48043;DHT22;33988;47.992;8.820;2023-01-13T14:29:43;13.40;54.40
48043;DHT22;33988;47.992;8.820;2023-01-13T14:32:17;13.30;54.80
48043;DHT22;33988;47.992;8.820;2023-01-13T14:34:45;13.20;54.70
48043;DHT22;33988;47.992;8.820;2023-01-13T14:37:41;13.10;55.00
48043;DHT22;33988;47.992;8.820;2023-01-13T14:43:15;13.00;55.30
48043;DHT22;33988;47.992;8.820;2023-01-13T14:45:58;12.90;55.50
48043;DHT22;33988;47.992;8.820;2023-01-13T14:48:31;12.90;55.60
48043;DHT22;33988;47.992;8.820;2023-01-13T14:51:10;12.90;55.60
48043;DHT22;33988;47.992;8.820;2023-01-13T14:53:46;12.80;55.70
48043;DHT22;33988;47.992;8.820;2023-01-13T14:59:31;12.60;55.90
48043;DHT22;33988;47.992;8.820;2023-01-13T15:08:02;12.50;56.20
48043;DHT22;33988;47.992;8.820;2023-01-13T15:10:44;12.40;56.40
48043;DHT22;33988;47.992;8.820;2023-01-13T15:13:46;12.30;56.40
48043;DHT22;33988;47.992;8.820;2023-01-13T15:16:28;12.30;56.50
48043;DHT22;33988;47.992;8.820;2023-01-13T15:19:02;12.10;56.50
48043;DHT22;33988;47.992;8.820;2023-01-13T15:21:29;12.10;56.60
48043;DHT22;33988;47.992;8.820;2023-01-13T15:23:59;12.10;56.70
48043;DHT22;33988;47.992;8.820;2023-01-13T15:26:28;12.00;56.80
48043;DHT22;33988;47.992;8.820;2023-01-13T15:29:02;12.00;56.80
48043;DHT22;33988;47.992;8.820;2023-01-13T15:31:34;12.00;56.80
48043;DHT22;33988;47.992;8.820;2023-01-13T15:34:01;12.00;57.00
48043;DHT22;33988;47.992;8.820;2023-01-13T15:36:33;11.90;57.00
48043;DHT22;33988;47.992;8.820;2023-01-13T15:39:02;11.90;57.00
48043;DHT22;33988;47.992;8.820;2023-01-13T15:41:34;11.90;57.00
48043;DHT22;33988;47.992;8.820;2023-01-13T15:44:19;12.00;57.10
48043;DHT22;33988;47.992;8.820;2023-01-13T15:47:06;11.90;57.10
48043;DHT22;33988;47.992;8.820;2023-01-13T15:49:35;11.90;57.10
48043;DHT22;33988;47.992;8.820;2023-01-13T15:52:19;11.80;57.10
48043;DHT22;33988;47.992;8.820;2023-01-13T15:54:51;11.80;57.10
48043;DHT22;33988;47.992;8.820;2023-01-13T15:57:26;11.80;57.10
48043;DHT22;33988;47.992;8.820;2023-01-13T15:59:59;11.80;57.10
48043;DHT22;33988;47.992;8.820;2023-01-13T16:02:30;11.80;57.20
48043;DHT22;33988;47.992;8.820;2023-01-13T16:05:01;11.80;57.20
48043;DHT22;33988;47.992;8.820;2023-01-13T16:07:31;11.70;57.20
48043;DHT22;33988;47.992;8.820;2023-01-13T16:09:58;11.70;57.30
48043;DHT22;33988;47.992;8.820;2023-01-13T16:12:27;11.70;57.30
48043;DHT22;33988;47.992;8.820;2023-01-13T16:14:58;11.60;57.30
48043;DHT22;33988;47.992;8.820;2023-01-13T16:17:26;11.70;57.30
48043;DHT22;33988;47.992;8.820;2023-01-13T16:19:56;11.60;57.30
48043;DHT22;33988;47.992;8.820;2023-01-13T16:22:23;11.60;57.30
48043;DHT22;33988;47.992;8.820;2023-01-13T16:24:55;11.60;57.40
48043;DHT22;33988;47.992;8.820;2023-01-13T16:27:23;11.60;57.40
48043;DHT22;33988;47.992;8.820;2023-01-13T16:29:51;11.50;57.50
48043;DHT22;33988;47.992;8.820;2023-01-13T16:32:26;11.50;57.60
48043;DHT22;33988;47.992;8.820;2023-01-13T16:34:55;11.40;57.50
48043;DHT22;33988;47.992;8.820;2023-01-13T16:37:25;11.40;57.60
48043;DHT22;33988;47.992;8.820;2023-01-13T16:39:53;11.10;57.70
48043;DHT22;33988;47.992;8.820;2023-01-13T16:42:20;11.20;57.80
48043;DHT22;33988;47.992;8.820;2023-01-13T16:44:49;11.30;57.90
48043;DHT22;33988;47.992;8.820;2023-01-13T16:47:18;11.20;57.90
48043;DHT22;33988;47.992;8.820;2023-01-13T16:49:48;11.20;57.90
48043;DHT22;33988;47.992;8.820;2023-01-13T16:52:15;11.20;57.90
48043;DHT22;33988;47.992;8.820;2023-01-13T16:54:44;11.20;57.90
48043;DHT22;33988;47.992;8.820;2023-01-13T16:57:12;11.20;57.90
48043;DHT22;33988;47.992;8.820;2023-01-13T16:59:43;11.10;58.00
48043;DHT22;33988;47.992;8.820;2023-01-13T17:02:13;11.10;58.10
48043;DHT22;33988;47.992;8.820;2023-01-13T17:04:46;11.10;58.10
48043;DHT22;33988;47.992;8.820;2023-01-13T17:07:15;11.10;58.20
48043;DHT22;33988;47.992;8.820;2023-01-13T17:09:43;11.10;58.30
48043;DHT22;33988;47.992;8.820;2023-01-13T17:12:10;11.10;58.30
48043;DHT22;33988;47.992;8.820;2023-01-13T17:14:40;11.00;58.20
48043;DHT22;33988;47.992;8.820;2023-01-13T17:17:20;11.10;58.30
48043;DHT22;33988;47.992;8.820;2023-01-13T17:19:51;11.00;58.30
48043;DHT22;33988;47.992;8.820;2023-01-13T17:22:23;11.00;58.40
48043;DHT22;33988;47.992;8.820;2023-01-13T17:24:52;11.00;58.30
48043;DHT22;33988;47.992;8.820;2023-01-13T17:27:21;10.90;58.40
48043;DHT22;33988;47.992;8.820;2023-01-13T17:29:49;11.00;58.40
48043;DHT22;33988;47.992;8.820;2023-01-13T17:32:17;11.00;58.30
48043;DHT22;33988;47.992;8.820;2023-01-13T17:34:47;11.00;58.30
48043;DHT22;33988;47.992;8.820;2023-01-13T17:37:14;11.00;58.50
48043;DHT22;33988;47.992;8.820;2023-01-13T17:39:43;11.00;58.40
48043;DHT22;33988;47.992;8.820;2023-01-13T17:42:17;11.00;58.40
48043;DHT22;33988;47.992;8.820;2023-01-13T17:44:46;11.00;58.30
48043;DHT22;33988;47.992;8.820;2023-01-13T17:47:14;10.90;58.30
48043;DHT22;33988;47.992;8.820;2023-01-13T17:49:40;10.90;58.30
48043;DHT22;33988;47.992;8.820;2023-01-13T17:52:08;10.90;58.40
48043;DHT22;33988;47.992;8.820;2023-01-13T17:54:35;10.90;58.50
48043;DHT22;33988;47.992;8.820;2023-01-13T17:57:08;10.90;58.60
48043;DHT22;33988;47.992;8.820;2023-01-13T17:59:35;10.90;58.70
48043;DHT22;33988;47.992;8.820;2023-01-13T18:02:05;10.90;58.70
48043;DHT22;33988;47.992;8.820;2023-01-13T18:04:32;10.90;58.60
48043;DHT22;33988;47.992;8.820;2023-01-13T18:07:02;10.90;58.70
48043;DHT22;33988;47.992;8.820;2023-01-13T18:09:33;10.90;58.60
48043;DHT22;33988;47.992;8.820;2023-01-13T18:12:08;10.90;58.60
48043;DHT22;33988;47.992;8.820;2023-01-13T18:14:37;11.00;58.70
48043;DHT22;33988;47.992;8.820;2023-01-13T18:17:04;10.90;58.70
48043;DHT22;33988;47.992;8.820;2023-01-13T18:19:33;11.00;58.80
48043;DHT22;33988;47.992;8.820;2023-01-13T18:22:18;11.00;59.00
48043;DHT22;33988;47.992;8.820;2023-01-13T18:25:23;11.00;59.10
48043;DHT22;33988;47.992;8.820;2023-01-13T18:28:16;11.00;59.20
48043;DHT22;33988;47.992;8.820;2023-01-13T18:30:51;10.90;59.20
48043;DHT22;33988;47.992;8.820;2023-01-13T18:33:20;10.90;59.30
48043;DHT22;33988;47.992;8.820;2023-01-13T18:35:47;10.90;59.30
48043;DHT22;33988;47.992;8.820;2023-01-13T18:38:17;10.90;59.40
48043;DHT22;33988;47.992;8.820;2023-01-13T18:40:48;10.90;59.40
48043;DHT22;33988;47.992;8.820;2023-01-13T18:43:15;10.90;59.50